KBTM/BTM METAR and TAF weather

Enter ICAO airport designator
Station Type Date Time Source
KBTM METAR 2021/04/13 06:53 UTC NOAA

KBTM 130653Z AUTO 02004KT 10SM SCT065 M04/M13 A3032 RMK AO2 SLP306 T10441128 400111111


Station Type Date Time Source
KBTM Decoded METAR 2021/04/13 06:53 UTC NOAA

BERT MOONEY AIRPORT, MT, United States (KBTM) 45-58N 112-30W 1688M
Apr 13, 2021 - 02:53 AM EDT / 2021.04.13 0653 UTC
Wind: from the NNE (020 degrees) at 5 MPH (4 KT):0
Visibility: 10 mile(s):0
Sky conditions: partly cloudy
Temperature: 24.1 F (-4.4 C)
Windchill: 17 F (-8 C):1
Dew Point: 9.0 F (-12.8 C)
Relative Humidity: 51%
Pressure (altimeter): 30.32 in. Hg (1026 hPa)
ob: KBTM 130653Z AUTO 02004KT 10SM SCT065 M04/M13 A3032 RMK AO2 SLP306 T10441128 400111111
cycle: 7

Station Type Date Time Source
KBTM TAF 2021/04/13 06:33 UTC NOAA

TAF KBTM 130531Z 1306/1406 36006KT P6SM OVC060
FM131800 29020G35KT P6SM BKN050
FM140200 32010G20KT P6SM BKN100

Example: see airport list